createdAt,value
2023-06-17T00:02:19.813Z,72.79
2023-06-17T00:06:26.680Z,72.66
2023-06-17T00:10:33.589Z,72.51
2023-06-17T00:14:42.013Z,72.99
2023-06-17T00:18:49.208Z,73.38
2023-06-17T00:22:56.094Z,73.43
2023-06-17T00:27:03.460Z,73.83
2023-06-17T00:31:10.456Z,74.28
2023-06-17T00:35:17.323Z,73.89
2023-06-17T00:39:24.208Z,74.04
2023-06-17T00:43:31.314Z,74.44
2023-06-17T00:47:39.024Z,74.03
2023-06-17T00:51:56.429Z,74.27
2023-06-17T00:56:12.350Z,74.75
2023-06-17T01:00:20.010Z,74.44
2023-06-17T01:04:29.486Z,74.84
2023-06-17T01:08:43.903Z,74.57
2023-06-17T01:12:52.482Z,74.59
2023-06-17T01:16:59.633Z,74.75
2023-06-17T01:21:07.264Z,75.07
2023-06-17T01:25:14.541Z,75.30
2023-06-17T01:29:22.187Z,75.42
2023-06-17T01:33:29.946Z,75.11
2023-06-17T01:37:42.915Z,75.65
2023-06-17T01:41:55.248Z,76.27
2023-06-17T01:46:03.260Z,77.36
2023-06-17T01:50:11.929Z,77.29
2023-06-17T01:54:18.894Z,77.07
2023-06-17T01:58:26.037Z,77.29
2023-06-17T02:02:33.138Z,77.04
2023-06-17T02:06:40.787Z,77.66
2023-06-17T02:10:47.704Z,77.46
2023-06-17T02:14:54.626Z,76.76
2023-06-17T02:19:03.518Z,77.41
2023-06-17T02:23:10.461Z,77.19
2023-06-17T02:27:18.072Z,77.19
2023-06-17T02:31:25.119Z,77.20
2023-06-17T02:35:32.126Z,77.09
2023-06-17T02:39:39.079Z,77.10
2023-06-17T02:43:46.131Z,77.83
2023-06-17T02:47:53.158Z,77.97
2023-06-17T02:52:00.049Z,79.31
2023-06-17T02:56:07.415Z,80.04
2023-06-17T03:00:15.554Z,79.32
2023-06-17T03:04:22.590Z,79.88
2023-06-17T03:08:29.574Z,80.36
2023-06-17T03:12:36.459Z,79.79
2023-06-17T03:16:45.808Z,79.21
2023-06-17T03:20:54.338Z,79.18
2023-06-17T03:25:01.215Z,79.31
2023-06-17T03:29:08.094Z,79.72
2023-06-17T03:33:15.986Z,80.01
2023-06-17T03:37:23.227Z,80.38
2023-06-17T03:41:30.252Z,80.52
2023-06-17T03:45:37.953Z,80.00
2023-06-17T03:49:45.545Z,79.41
2023-06-17T03:53:52.454Z,79.52
2023-06-17T03:57:59.294Z,79.44
2023-06-17T04:02:06.770Z,79.29
2023-06-17T04:06:15.703Z,79.45
2023-06-17T04:10:22.868Z,79.22
2023-06-17T04:14:32.075Z,78.92
2023-06-17T04:18:38.937Z,78.53
2023-06-17T04:22:46.279Z,78.66
2023-06-17T04:26:53.997Z,79.13
2023-06-17T04:31:02.700Z,78.59
2023-06-17T04:35:12.327Z,78.12
2023-06-17T04:39:19.335Z,77.94
2023-06-17T04:43:29.991Z,77.93
2023-06-17T04:47:37.620Z,77.52
2023-06-17T04:51:44.528Z,76.74
2023-06-17T04:55:52.173Z,76.76
2023-06-17T04:59:58.992Z,75.44
2023-06-17T05:04:06.865Z,75.10
2023-06-17T05:08:13.865Z,74.01
2023-06-17T05:12:20.787Z,73.95
2023-06-17T05:16:27.770Z,73.62
2023-06-17T05:20:34.726Z,73.16
2023-06-17T05:24:41.694Z,73.07
2023-06-17T05:28:49.210Z,72.96
2023-06-17T05:32:56.142Z,72.47
2023-06-17T05:37:03.021Z,71.31
2023-06-17T05:41:10.046Z,69.57
2023-06-17T05:45:17.479Z,69.39
2023-06-17T05:49:24.449Z,68.15
2023-06-17T05:53:31.353Z,68.47
2023-06-17T05:57:38.192Z,68.19
2023-06-17T06:01:45.064Z,68.92
2023-06-17T06:05:51.969Z,68.63
2023-06-17T06:09:58.813Z,66.89
2023-06-17T06:14:05.904Z,66.79
2023-06-17T06:18:12.936Z,66.35
2023-06-17T06:22:20.069Z,65.61
2023-06-17T06:26:27.676Z,66.29
2023-06-17T06:30:34.526Z,65.35
2023-06-17T06:34:41.413Z,64.30
2023-06-17T06:38:48.486Z,63.09
2023-06-17T06:42:55.299Z,62.97
2023-06-17T06:47:02.179Z,63.17
2023-06-17T06:51:09.081Z,63.26
2023-06-17T06:55:16.125Z,61.86
2023-06-17T06:59:22.987Z,60.65
2023-06-17T07:03:29.893Z,60.08
2023-06-17T07:07:36.802Z,60.63
2023-06-17T07:11:43.659Z,60.30
2023-06-17T07:15:50.738Z,60.01
2023-06-17T07:19:57.628Z,57.38
2023-06-17T07:24:04.609Z,57.08
2023-06-17T07:28:12.326Z,56.47
2023-06-17T07:32:19.291Z,57.93
2023-06-17T07:36:26.176Z,57.79
2023-06-17T07:40:33.273Z,57.49
2023-06-17T07:44:40.163Z,56.21
2023-06-17T07:48:47.116Z,56.53
2023-06-17T07:52:54.175Z,56.39
2023-06-17T07:57:01.069Z,56.36
2023-06-17T08:01:08.016Z,55.77
2023-06-17T08:05:15.099Z,55.19
2023-06-17T08:09:22.029Z,54.19
2023-06-17T08:13:28.886Z,53.84
2023-06-17T08:17:35.916Z,54.75
2023-06-17T08:21:55.174Z,55.24
2023-06-17T08:26:02.079Z,55.09
2023-06-17T08:30:31.589Z,55.08
2023-06-17T08:34:38.464Z,54.43
2023-06-17T08:38:46.366Z,53.61
2023-06-17T08:43:16.127Z,53.20
2023-06-17T08:47:27.115Z,53.00
2023-06-17T08:51:34.232Z,52.51
2023-06-17T08:56:05.222Z,52.23
2023-06-17T09:00:36.703Z,51.05
2023-06-17T09:04:44.032Z,51.26
2023-06-17T09:08:52.962Z,51.37
2023-06-17T09:17:53.709Z,52.21
2023-06-17T09:27:01.690Z,52.04
2023-06-17T09:31:43.657Z,51.38
2023-06-17T09:36:05.356Z,51.61
2023-06-17T09:40:33.757Z,51.77
2023-06-17T09:44:52.398Z,51.58
2023-06-17T09:53:54.161Z,50.23
2023-06-17T09:58:42.836Z,49.94
2023-06-17T10:03:02.320Z,49.10
2023-06-17T10:07:10.505Z,48.26
2023-06-17T10:11:20.448Z,46.09
2023-06-17T10:16:00.281Z,46.51
2023-06-17T10:20:11.368Z,44.90
2023-06-17T10:29:29.841Z,43.44
2023-06-17T10:33:49.942Z,43.54
2023-06-17T10:38:11.821Z,43.50
2023-06-17T10:42:18.734Z,43.91
2023-06-17T10:46:28.500Z,44.20
2023-06-17T10:50:40.422Z,44.24
2023-06-17T10:59:14.873Z,44.40
2023-06-17T11:03:38.471Z,44.06
2023-06-17T11:07:45.799Z,43.70
2023-06-17T11:12:03.380Z,43.04
2023-06-17T11:16:24.725Z,42.59
2023-06-17T11:20:32.526Z,41.68
2023-06-17T11:24:39.727Z,40.27
2023-06-17T11:28:53.343Z,39.03
2023-06-17T11:33:00.812Z,39.09
2023-06-17T11:37:12.369Z,37.96
2023-06-17T11:41:19.808Z,36.26
2023-06-17T11:49:52.214Z,36.33
2023-06-17T11:53:59.808Z,35.85
2023-06-17T11:58:13.340Z,35.75
2023-06-17T12:07:27.346Z,35.00
2023-06-17T12:11:57.684Z,33.88
2023-06-17T12:16:34.746Z,34.34
2023-06-17T12:20:52.171Z,34.53
2023-06-17T12:25:12.471Z,33.54
2023-06-17T12:29:25.173Z,33.72
2023-06-17T12:33:43.414Z,33.91
2023-06-17T12:37:52.511Z,34.41
2023-06-17T12:42:06.450Z,34.43
2023-06-17T12:46:13.373Z,34.94
2023-06-17T12:50:20.560Z,35.44
2023-06-17T12:54:45.989Z,36.00
2023-06-17T12:58:59.377Z,34.72
2023-06-17T13:03:06.945Z,33.66
2023-06-17T13:07:14.164Z,29.80
2023-06-17T13:11:24.910Z,26.96
2023-06-17T13:15:31.838Z,26.98
2023-06-17T13:19:52.564Z,27.97
2023-06-17T13:23:59.493Z,29.13
2023-06-17T13:28:30.405Z,30.42
2023-06-17T13:32:48.919Z,30.41
2023-06-17T13:36:56.249Z,29.10
2023-06-17T13:41:11.418Z,28.84
2023-06-17T13:45:19.158Z,28.48
2023-06-17T13:50:02.173Z,28.87
2023-06-17T13:54:11.290Z,28.28
2023-06-17T13:58:18.230Z,28.32
2023-06-17T14:02:25.161Z,29.42
2023-06-17T14:06:52.936Z,30.10
2023-06-17T14:11:05.497Z,30.27
2023-06-17T14:15:13.844Z,30.64
2023-06-17T14:19:35.073Z,29.47
2023-06-17T14:24:10.833Z,27.24
2023-06-17T14:28:20.938Z,27.23
2023-06-17T14:37:20.793Z,28.07
2023-06-17T14:45:48.323Z,27.72
2023-06-17T14:49:55.531Z,27.01
2023-06-17T14:54:17.058Z,27.04
2023-06-17T14:58:45.829Z,27.71
2023-06-17T15:12:31.588Z,32.36
2023-06-17T15:16:49.640Z,33.82
2023-06-17T15:21:16.870Z,35.24
2023-06-17T15:29:37.559Z,35.97
2023-06-17T15:43:11.307Z,38.05
2023-06-17T15:47:49.404Z,38.88
2023-06-17T15:52:17.768Z,39.47
2023-06-17T15:56:51.020Z,39.66
2023-06-17T16:01:24.019Z,40.30
2023-06-17T16:05:35.293Z,40.18
2023-06-17T16:14:07.370Z,40.03
2023-06-17T16:18:14.902Z,39.90
2023-06-17T16:22:30.800Z,40.30
2023-06-17T16:31:02.453Z,41.53
2023-06-17T16:35:10.754Z,41.99
2023-06-17T16:39:25.260Z,42.35
2023-06-17T16:43:32.175Z,43.06
2023-06-17T16:47:43.636Z,43.80
2023-06-17T17:00:40.574Z,45.90
2023-06-17T17:04:47.476Z,45.94
2023-06-17T17:09:04.843Z,46.42
2023-06-17T17:13:11.887Z,46.59
2023-06-17T17:17:18.832Z,47.10
2023-06-17T17:21:29.085Z,47.17
2023-06-17T17:25:36.917Z,47.59
2023-06-17T17:29:56.228Z,47.98
2023-06-17T17:34:03.151Z,48.14
2023-06-17T17:38:35.802Z,48.65
2023-06-17T17:43:08.798Z,49.20
2023-06-17T17:47:15.752Z,49.79
2023-06-17T17:51:43.373Z,50.30
2023-06-17T17:56:07.837Z,50.72
2023-06-17T18:00:30.022Z,51.27
2023-06-17T18:09:02.779Z,52.05
2023-06-17T18:13:09.633Z,52.26
2023-06-17T18:17:25.657Z,52.49
2023-06-17T18:21:49.767Z,52.63
2023-06-17T18:25:57.941Z,53.32
2023-06-17T18:30:05.528Z,53.68
2023-06-17T18:34:18.674Z,54.29
2023-06-17T18:42:52.879Z,55.27
2023-06-17T18:47:00.490Z,55.51
2023-06-17T18:51:07.582Z,55.77
2023-06-17T18:55:14.592Z,56.53
2023-06-17T18:59:21.847Z,57.07
2023-06-17T19:03:29.340Z,57.72
2023-06-17T19:07:38.583Z,57.73
2023-06-17T19:11:45.691Z,58.06
2023-06-17T19:15:52.580Z,58.53
2023-06-17T19:19:59.756Z,58.97
2023-06-17T19:24:07.208Z,59.38
2023-06-17T19:28:14.484Z,59.55
2023-06-17T19:32:21.566Z,59.57
2023-06-17T19:36:29.060Z,59.72
2023-06-17T19:40:36.010Z,59.77
2023-06-17T19:44:44.107Z,60.48
2023-06-17T19:48:51.453Z,60.83
2023-06-17T19:52:58.346Z,61.19
2023-06-17T19:57:05.922Z,61.69
2023-06-17T20:01:12.867Z,61.68
2023-06-17T20:05:19.890Z,62.08
2023-06-17T20:09:27.437Z,62.02
2023-06-17T20:13:34.507Z,62.12
2023-06-17T20:17:41.731Z,62.50
2023-06-17T20:21:48.682Z,62.65
2023-06-17T20:25:55.556Z,62.75
2023-06-17T20:30:02.560Z,63.20
2023-06-17T20:34:09.549Z,63.36
2023-06-17T20:38:16.712Z,63.55
2023-06-17T20:42:23.681Z,63.49
2023-06-17T20:46:30.867Z,63.80
2023-06-17T20:50:38.098Z,63.76
2023-06-17T20:54:45.014Z,63.84
2023-06-17T20:58:52.873Z,63.89
2023-06-17T21:02:59.914Z,64.17
2023-06-17T21:07:07.579Z,64.21
2023-06-17T21:11:14.949Z,64.38
2023-06-17T21:15:21.889Z,64.38
2023-06-17T21:19:28.894Z,64.72
2023-06-17T21:23:36.278Z,64.63
2023-06-17T21:27:43.256Z,64.79
2023-06-17T21:31:50.773Z,65.07
2023-06-17T21:35:57.762Z,65.17
2023-06-17T21:40:05.122Z,65.41
2023-06-17T21:44:12.127Z,65.46
2023-06-17T21:48:19.018Z,65.56
2023-06-17T21:52:25.880Z,65.86
2023-06-17T21:56:32.887Z,66.10
2023-06-17T22:00:40.710Z,66.52
2023-06-17T22:04:47.587Z,66.79
2023-06-17T22:08:54.498Z,66.88
2023-06-17T22:13:01.795Z,66.98
2023-06-17T22:17:09.708Z,67.12
2023-06-17T22:21:16.662Z,67.33
2023-06-17T22:25:23.583Z,67.85
2023-06-17T22:29:30.415Z,68.06
2023-06-17T22:33:37.494Z,68.26
2023-06-17T22:37:45.008Z,68.27
2023-06-17T22:41:51.867Z,68.32
2023-06-17T22:45:58.698Z,68.25
2023-06-17T22:50:06.486Z,68.49
2023-06-17T22:54:13.339Z,68.55
2023-06-17T22:58:20.218Z,68.64
2023-06-17T23:02:27.446Z,68.71
2023-06-17T23:06:34.518Z,68.83
2023-06-17T23:10:41.391Z,68.99
2023-06-17T23:14:48.271Z,69.33
2023-06-17T23:18:55.191Z,69.45
2023-06-17T23:23:05.161Z,69.39
2023-06-17T23:27:11.992Z,69.50
2023-06-17T23:31:18.933Z,69.76
2023-06-17T23:35:25.996Z,69.80
2023-06-17T23:39:32.856Z,69.93
2023-06-17T23:43:39.768Z,70.01
2023-06-17T23:47:46.736Z,70.14
2023-06-17T23:51:53.625Z,69.91
2023-06-17T23:56:00.508Z,70.08
